Cloverdale, Michigan
Current Conditions -  °F | °C
As of 10:53 PM on Sunday 23 Nov 2014 (Local Time) from KBTL Reporting Station
Light Rain Light Rain  
Wind Chill: 52°   Ceiling: 900
Heat Index: 52°   Visibility: 6mi
Dew Point: 48°   Wind: 9mph
Humidity: 86%   Direction: 150°SSE
Pressure: 29.21"   Gusts: NA
Location:  42.56°N, 85.43°W
Report Text: KBTL 240353Z 15008KT 6SM -RA BR OVC009 11/09 A2921 RMK AO2 CIG 005V013 PRESFR SLP892 P0007 T01110089 $
Loading
Personal Weather Stations






























Interactive Weather Map New forecast layout! Learn more

10-Day Weather Forecast

Advertisements
Track Severe Weather on mobile